Time;durP1;ratioP1;P1;durP2;ratioP2;P2;SDS_P1;SDS_P2;PMS_P1;PMS_P2;Temp;Humidity;BMP_temperature;BMP_pressure;BME280_temperature;BME280_humidity;BME280_pressure;Samples;Min_cycle;Max_cycle;Signal;HPM_P1;HPM_P2
2022/04/25 00:01:23;;;;;;;13.80;8.07;;;8.40;99.90;;;;;;5015276;28;20117;-73
2022/04/25 00:03:52;;;;;;;10.68;7.72;;;8.30;99.90;;;;;;5014439;28;20022;-72
2022/04/25 00:06:18;;;;;;;11.02;8.32;;;8.30;99.90;;;;;;5015253;28;20033;-72
2022/04/25 00:08:44;;;;;;;12.02;7.45;;;8.40;99.90;;;;;;5015487;28;20394;-72
2022/04/25 00:11:09;;;;;;;11.00;7.57;;;8.30;99.90;;;;;;5014384;28;20125;-72
2022/04/25 00:13:36;;;;;;;12.18;7.60;;;8.30;99.90;;;;;;5015296;28;20075;-72
2022/04/25 00:16:01;;;;;;;13.43;7.40;;;8.30;99.90;;;;;;5014777;28;20033;-72
2022/04/25 00:18:27;;;;;;;10.95;8.07;;;8.30;99.90;;;;;;5014404;28;20022;-71
2022/04/25 00:20:52;;;;;;;13.95;8.07;;;8.20;99.90;;;;;;5014622;28;20505;-73
2022/04/25 00:23:18;;;;;;;10.70;7.63;;;8.10;99.90;;;;;;5015403;28;20493;-73
2022/04/25 00:25:43;;;;;;;11.77;8.18;;;8.10;99.90;;;;;;5014639;28;20514;-73
2022/04/25 00:28:09;;;;;;;8.18;7.13;;;8.10;99.90;;;;;;5014753;28;20026;-72
2022/04/25 00:30:34;;;;;;;13.48;8.02;;;8.00;99.90;;;;;;5014926;28;20030;-73
2022/04/25 00:33:03;;;;;;;11.70;8.55;;;8.00;99.90;;;;;;5013857;28;20018;-71
2022/04/25 00:35:29;;;;;;;11.95;7.65;;;8.00;99.90;;;;;;5014735;28;20128;-71
2022/04/25 00:37:54;;;;;;;13.95;7.95;;;7.90;99.90;;;;;;5014638;28;20493;-71
2022/04/25 00:40:22;;;;;;;9.63;7.30;;;8.00;99.90;;;;;;5014083;28;20024;-71
2022/04/25 00:42:49;;;;;;;15.02;8.57;;;8.00;99.90;;;;;;5014362;28;20459;-71
2022/04/25 00:45:15;;;;;;;11.43;8.13;;;8.00;99.90;;;;;;5013714;28;20109;-71
2022/04/25 00:47:43;;;;;;;13.35;7.93;;;8.00;99.90;;;;;;5014406;28;20486;-72
2022/04/25 00:50:10;;;;;;;9.45;7.55;;;7.90;99.90;;;;;;5014060;28;20092;-72
2022/04/25 00:52:39;;;;;;;12.40;8.80;;;7.80;99.90;;;;;;5013888;28;20038;-71
2022/04/25 00:55:10;;;;;;;14.82;8.02;;;7.70;99.90;;;;;;5013991;28;20125;-71
2022/04/25 00:57:36;;;;;;;9.60;7.32;;;7.70;99.90;;;;;;5014542;28;20030;-71
2022/04/25 01:00:08;;;;;;;11.73;7.70;;;7.70;99.90;;;;;;5013343;28;20077;-72
2022/04/25 01:02:34;;;;;;;9.10;7.22;;;7.80;99.90;;;;;;5014149;28;20026;-71
2022/04/25 01:05:00;;;;;;;11.00;8.45;;;7.80;99.90;;;;;;5014044;28;20025;-72
2022/04/25 01:07:26;;;;;;;10.35;8.65;;;7.90;99.90;;;;;;5013531;28;20060;-72
2022/04/25 01:09:52;;;;;;;10.43;8.10;;;7.90;99.90;;;;;;5014001;28;20102;-72
2022/04/25 01:12:18;;;;;;;11.63;7.32;;;7.90;99.90;;;;;;5014190;28;20045;-72
2022/04/25 01:14:43;;;;;;;13.90;8.68;;;8.00;99.90;;;;;;5013394;28;20026;-72
2022/04/25 01:17:09;;;;;;;11.32;7.68;;;8.00;99.90;;;;;;5013892;28;20022;-72
2022/04/25 01:19:35;;;;;;;12.05;7.78;;;8.00;99.90;;;;;;5013876;28;20486;-72
2022/04/25 01:22:06;;;;;;;10.43;8.15;;;7.80;99.90;;;;;;5012615;28;20033;-72
2022/04/25 01:27:18;;;;;;;15.57;7.88;;;7.70;99.90;;;;;;5014119;28;20025;-72
2022/04/25 01:29:45;;;;;;;9.00;7.75;;;7.70;99.90;;;;;;5013027;28;20029;-72
2022/04/25 01:32:10;;;;;;;10.50;8.15;;;7.70;99.90;;;;;;5014196;28;20049;-73
2022/04/25 01:34:37;;;;;;;13.45;7.35;;;7.70;99.90;;;;;;5014199;28;20037;-72
2022/04/25 01:37:11;;;;;;;10.57;8.00;;;7.70;99.90;;;;;;5013428;28;20061;-72
2022/04/25 01:39:40;;;;;;;13.73;8.43;;;7.70;99.90;;;;;;5013674;28;20108;-72
2022/04/25 01:42:07;;;;;;;12.93;8.80;;;7.70;99.90;;;;;;5011825;28;20156;-72
2022/04/25 01:44:34;;;;;;;10.88;7.82;;;7.60;99.90;;;;;;5013419;28;20046;-72
2022/04/25 01:47:00;;;;;;;14.07;7.82;;;7.60;99.90;;;;;;5013140;28;20478;-72
2022/04/25 01:49:25;;;;;;;15.05;7.88;;;7.60;99.90;;;;;;5012711;28;20057;-71
2022/04/25 01:51:51;;;;;;;14.13;8.02;;;7.60;99.90;;;;;;5012952;28;20490;-72
2022/04/25 01:54:25;;;;;;;13.45;8.02;;;7.60;99.90;;;;;;5013287;28;20033;-71
2022/04/25 01:56:52;;;;;;;13.88;8.77;;;7.60;99.90;;;;;;5011607;28;20077;-71
2022/04/25 01:59:17;;;;;;;14.93;9.45;;;7.60;99.90;;;;;;5013401;28;20099;-72
2022/04/25 02:01:43;;;;;;;13.82;9.52;;;7.70;99.90;;;;;;5012999;28;20112;-72
2022/04/25 02:04:09;;;;;;;15.98;8.63;;;7.70;99.90;;;;;;5012193;28;20133;-72
2022/04/25 02:06:34;;;;;;;22.48;9.80;;;7.80;99.90;;;;;;5013055;28;20389;-72
2022/04/25 02:09:00;;;;;;;12.48;9.07;;;7.80;99.90;;;;;;5012804;28;20088;-72
2022/04/25 02:11:26;;;;;;;17.55;9.43;;;7.90;99.90;;;;;;5012081;28;20065;-72
2022/04/25 02:13:52;;;;;;;13.93;8.73;;;7.90;99.90;;;;;;5012559;28;20470;-72
2022/04/25 02:16:20;;;;;;;12.65;8.60;;;7.90;99.90;;;;;;5013118;28;20033;-72
2022/04/25 02:18:45;;;;;;;16.33;9.07;;;7.90;99.90;;;;;;5012235;28;20022;-72
2022/04/25 02:21:14;;;;;;;10.30;8.60;;;7.90;99.90;;;;;;5012570;28;20037;-72
2022/04/25 02:23:40;;;;;;;16.75;9.02;;;7.80;99.90;;;;;;5012140;28;20057;-72
2022/04/25 02:26:06;;;;;;;15.13;9.35;;;7.80;99.90;;;;;;5012442;28;20070;-72
2022/04/25 02:28:34;;;;;;;12.73;9.32;;;7.90;99.90;;;;;;5012914;28;20068;-72
2022/04/25 02:31:00;;;;;;;14.77;8.80;;;8.00;99.90;;;;;;5011932;28;20041;-72
2022/04/25 02:33:25;;;;;;;18.05;9.82;;;8.10;99.90;;;;;;5012560;28;20029;-72
2022/04/25 02:35:51;;;;;;;13.88;9.10;;;8.10;99.90;;;;;;5012451;28;20030;-72
2022/04/25 02:38:17;;;;;;;15.95;9.18;;;8.20;99.90;;;;;;5011886;28;20378;-72
2022/04/25 02:40:42;;;;;;;14.82;9.38;;;8.20;99.90;;;;;;5012699;28;20108;-72
2022/04/25 02:43:08;;;;;;;18.38;9.70;;;8.20;99.90;;;;;;5012773;28;20022;-71
2022/04/25 02:45:36;;;;;;;16.15;9.55;;;8.20;99.90;;;;;;5011963;28;20022;-72
2022/04/25 02:48:02;;;;;;;15.88;9.93;;;8.20;99.90;;;;;;5012308;28;20104;-72
2022/04/25 02:50:28;;;;;;;21.88;9.75;;;8.20;99.90;;;;;;5012352;28;20433;-72
2022/04/25 02:52:54;;;;;;;15.32;9.48;;;8.30;99.90;;;;;;5012765;28;20029;-72
2022/04/25 02:55:20;;;;;;;16.23;9.90;;;8.30;99.90;;;;;;5018177;28;20469;-72
2022/04/25 02:57:46;;;;;;;12.90;8.85;;;8.30;99.90;;;;;;5012527;28;20076;-72
2022/04/25 03:00:12;;;;;;;17.58;9.52;;;8.30;99.90;;;;;;5011249;28;20034;-72
2022/04/25 03:02:38;;;;;;;16.75;10.30;;;8.30;99.90;;;;;;5012296;28;20025;-72
2022/04/25 03:05:04;;;;;;;14.55;8.90;;;8.40;99.90;;;;;;5011923;28;20029;-72
2022/04/25 03:07:30;;;;;;;15.35;9.75;;;8.40;99.90;;;;;;5011626;28;20033;-72
2022/04/25 03:09:56;;;;;;;13.90;9.70;;;8.40;99.90;;;;;;5015955;28;20025;-72
2022/04/25 03:12:22;;;;;;;12.45;8.70;;;8.50;99.90;;;;;;5016488;28;20029;-73
2022/04/25 03:14:47;;;;;;;13.88;9.45;;;8.50;99.90;;;;;;5015695;28;20045;-71
2022/04/25 03:17:13;;;;;;;20.23;9.80;;;8.50;99.90;;;;;;5016857;28;20030;-72
2022/04/25 03:19:38;;;;;;;17.50;9.65;;;8.50;99.90;;;;;;5016720;28;20061;-72
2022/04/25 03:22:05;;;;;;;18.40;10.68;;;8.60;99.90;;;;;;5015096;28;20025;-72
2022/04/25 03:24:30;;;;;;;17.17;11.23;;;8.60;99.90;;;;;;5016243;28;20080;-72
2022/04/25 03:26:57;;;;;;;18.73;11.07;;;8.60;99.90;;;;;;5015436;28;20030;-72
2022/04/25 03:29:23;;;;;;;22.90;12.85;;;8.60;99.90;;;;;;5016180;28;20058;-73
2022/04/25 03:31:48;;;;;;;19.58;12.75;;;8.50;99.90;;;;;;5015667;28;20568;-72
2022/04/25 03:34:14;;;;;;;18.50;11.13;;;8.40;99.90;;;;;;5015267;28;20021;-72
2022/04/25 03:36:39;;;;;;;16.42;12.38;;;8.30;99.90;;;;;;5015814;28;20149;-72
2022/04/25 03:39:06;;;;;;;19.00;11.35;;;8.20;99.90;;;;;;5015836;28;20025;-72
2022/04/25 03:41:31;;;;;;;18.98;11.48;;;8.20;99.90;;;;;;5015292;28;20064;-72
2022/04/25 03:43:57;;;;;;;22.40;13.38;;;8.20;99.90;;;;;;5015824;28;20417;-72
2022/04/25 03:46:23;;;;;;;20.38;11.77;;;8.20;99.90;;;;;;5015816;28;20053;-72
2022/04/25 03:48:48;;;;;;;19.23;11.15;;;8.20;99.90;;;;;;5014692;28;20378;-72
2022/04/25 03:51:14;;;;;;;17.25;12.20;;;8.30;99.90;;;;;;5015477;28;20518;-72
2022/04/25 03:53:40;;;;;;;19.35;11.55;;;8.30;99.90;;;;;;5015773;28;20022;-72
2022/04/25 03:58:50;;;;;;;17.20;12.40;;;8.40;99.90;;;;;;5015217;28;20048;-71
2022/04/25 04:01:15;;;;;;;22.05;11.88;;;8.30;99.90;;;;;;5015360;28;20236;-71
2022/04/25 04:03:41;;;;;;;14.43;11.13;;;8.30;99.90;;;;;;5014682;28;20084;-71
2022/04/25 04:06:09;;;;;;;14.38;11.55;;;8.30;99.90;;;;;;5014987;28;20513;-72
2022/04/25 04:08:35;;;;;;;17.83;12.07;;;8.30;99.90;;;;;;5015154;28;20034;-71
2022/04/25 04:11:03;;;;;;;18.92;11.88;;;8.20;99.90;;;;;;5014236;28;20048;-71
2022/04/25 04:13:29;;;;;;;21.92;11.52;;;8.20;99.90;;;;;;5015124;28;20076;-72
2022/04/25 04:15:56;;;;;;;23.02;12.13;;;8.20;99.90;;;;;;5014749;28;20030;-71
2022/04/25 04:18:23;;;;;;;15.95;11.32;;;8.10;99.90;;;;;;5014218;28;20026;-72
2022/04/25 04:20:49;;;;;;;24.52;13.18;;;8.20;99.90;;;;;;5014738;28;20029;-72
2022/04/25 04:23:14;;;;;;;18.83;12.15;;;8.20;99.90;;;;;;5014332;28;20168;-71
2022/04/25 04:25:40;;;;;;;17.02;11.45;;;8.20;99.90;;;;;;5014874;28;20030;-71
2022/04/25 04:28:06;;;;;;;19.15;11.90;;;8.20;99.90;;;;;;5018012;28;20076;-71
2022/04/25 04:30:33;;;;;;;15.40;10.30;;;8.20;99.90;;;;;;5013914;28;20893;-71
2022/04/25 04:32:58;;;;;;;15.18;10.48;;;8.10;99.90;;;;;;5014333;28;20034;-72
2022/04/25 04:38:09;;;;;;;11.02;9.15;;;8.10;99.90;;;;;;5013865;28;20501;-72
2022/04/25 04:40:37;;;;;;;12.88;8.50;;;8.10;99.90;;;;;;5014494;28;20030;-72
2022/04/25 04:43:03;;;;;;;10.95;8.32;;;8.10;99.90;;;;;;5014401;28;20028;-72
2022/04/25 04:45:30;;;;;;;14.18;10.10;;;8.10;99.90;;;;;;5013843;28;20033;-72
2022/04/25 04:47:55;;;;;;;14.55;9.95;;;8.10;99.90;;;;;;5014409;28;20034;-72
2022/04/25 04:50:21;;;;;;;17.10;9.85;;;8.00;99.90;;;;;;5014619;28;20033;-72
2022/04/25 04:52:49;;;;;;;15.48;9.93;;;8.10;99.90;;;;;;5013625;28;20032;-72
2022/04/25 04:55:15;;;;;;;13.57;10.20;;;8.00;99.90;;;;;;5014279;28;20050;-72
2022/04/25 04:57:42;;;;;;;13.80;9.18;;;8.10;99.90;;;;;;5014803;28;20026;-72
2022/04/25 05:00:10;;;;;;;15.80;10.73;;;8.10;99.90;;;;;;5013720;28;20185;-72
2022/04/25 05:02:36;;;;;;;18.60;11.23;;;8.10;99.90;;;;;;5014376;28;20069;-72
2022/04/25 05:05:03;;;;;;;15.50;11.45;;;8.20;99.90;;;;;;5014171;28;20041;-72
2022/04/25 05:07:29;;;;;;;17.85;11.77;;;8.20;99.90;;;;;;5013315;28;20026;-71
2022/04/25 05:09:54;;;;;;;20.05;11.48;;;8.30;99.90;;;;;;5013836;28;20026;-72
2022/04/25 05:12:20;;;;;;;16.35;11.63;;;8.30;99.90;;;;;;5013932;28;20088;-71
2022/04/25 05:14:46;;;;;;;17.27;11.95;;;8.30;99.90;;;;;;5013228;28;20064;-71
2022/04/25 05:17:12;;;;;;;18.85;11.85;;;8.30;99.90;;;;;;5013806;28;20088;-71
2022/04/25 05:19:37;;;;;;;21.77;11.57;;;8.40;99.90;;;;;;5013362;28;20101;-72
2022/04/25 05:22:03;;;;;;;22.98;11.88;;;8.40;99.90;;;;;;5013741;28;20381;-71
2022/04/25 05:24:28;;;;;;;18.50;12.50;;;8.30;99.90;;;;;;5013935;28;20026;-71
2022/04/25 05:26:54;;;;;;;20.20;11.95;;;8.40;99.90;;;;;;5012919;28;20034;-72
2022/04/25 05:29:19;;;;;;;21.95;13.05;;;8.40;99.90;;;;;;5014068;28;20527;-72
2022/04/25 05:31:45;;;;;;;25.42;13.68;;;8.40;99.90;;;;;;5012938;28;20096;-72
2022/04/25 05:34:14;;;;;;;21.95;13.75;;;8.40;99.90;;;;;;5012793;28;20123;-72
2022/04/25 05:36:40;;;;;;;19.33;13.00;;;8.40;99.90;;;;;;5013742;28;20064;-71
2022/04/25 05:39:05;;;;;;;24.88;13.27;;;8.40;99.90;;;;;;5013363;28;20049;-72
2022/04/25 05:41:31;;;;;;;29.42;13.57;;;8.40;99.90;;;;;;5012763;28;20060;-71
2022/04/25 05:43:57;;;;;;;21.60;13.50;;;8.40;99.90;;;;;;5013157;28;20022;-72
2022/04/25 05:46:23;;;;;;;27.10;13.45;;;8.40;99.90;;;;;;5013730;28;20425;-72
2022/04/25 05:54:32;;;;;;;23.30;13.77;;;8.60;99.90;;;;;;5012907;28;20041;-73
2022/04/25 05:56:57;;;;;;;21.65;13.25;;;8.60;99.90;;;;;;5012538;28;20046;-72
2022/04/25 05:59:23;;;;;;;25.52;14.95;;;8.60;99.90;;;;;;5016597;28;20090;-72
2022/04/25 06:01:48;;;;;;;20.80;12.65;;;8.60;99.90;;;;;;5013212;28;20117;-73
2022/04/25 06:04:14;;;;;;;18.77;13.32;;;8.60;99.90;;;;;;5013132;28;20529;-72
2022/04/25 06:06:40;;;;;;;20.67;13.13;;;8.60;99.90;;;;;;5012918;28;20048;-72
2022/04/25 06:09:05;;;;;;;15.45;12.45;;;8.60;99.90;;;;;;5012204;28;20113;-71
2022/04/25 06:11:32;;;;;;;20.35;13.20;;;8.70;99.90;;;;;;5012763;28;20038;-72
2022/04/25 06:13:59;;;;;;;17.02;12.05;;;8.70;99.90;;;;;;5012786;28;20068;-71
2022/04/25 06:16:25;;;;;;;15.82;12.93;;;8.80;99.90;;;;;;5012405;28;20030;-72
2022/04/25 06:18:51;;;;;;;17.35;13.27;;;8.80;99.90;;;;;;5012578;28;20080;-72
2022/04/25 06:21:16;;;;;;;16.35;13.27;;;8.90;99.90;;;;;;5012816;28;20080;-72
2022/04/25 06:23:42;;;;;;;20.40;14.15;;;9.00;99.90;;;;;;5011990;28;20022;-72
2022/04/25 06:26:08;;;;;;;18.73;13.43;;;9.00;99.90;;;;;;5012599;28;20583;-72
2022/04/25 06:28:33;;;;;;;18.05;12.25;;;9.10;99.90;;;;;;5012759;28;20033;-72
2022/04/25 06:30:59;;;;;;;21.83;13.32;;;9.20;99.90;;;;;;5011698;28;20041;-72
2022/04/25 06:33:25;;;;;;;19.75;13.30;;;9.30;99.90;;;;;;5012657;28;20475;-72
2022/04/25 06:35:51;;;;;;;22.25;14.43;;;9.30;99.90;;;;;;5012199;28;20382;-72
2022/04/25 06:38:18;;;;;;;22.08;13.05;;;9.30;99.90;;;;;;5011846;28;20022;-73
2022/04/25 06:40:44;;;;;;;15.13;12.73;;;9.30;99.90;;;;;;5012546;28;20029;-72
2022/04/25 06:43:10;;;;;;;22.90;14.65;;;9.30;99.90;;;;;;5012279;28;20065;-72
2022/04/25 06:45:36;;;;;;;22.40;14.43;;;9.20;99.90;;;;;;5011917;28;20137;-71
2022/04/25 06:48:01;;;;;;;19.10;14.38;;;9.20;99.90;;;;;;5012249;28;20053;-72
2022/04/25 06:50:27;;;;;;;22.85;14.82;;;9.20;99.90;;;;;;5012352;28;20026;-72
2022/04/25 06:52:53;;;;;;;23.90;13.57;;;9.10;99.90;;;;;;5011522;28;20110;-72
2022/04/25 06:55:19;;;;;;;20.50;13.90;;;9.10;99.90;;;;;;5012383;28;20397;-72
2022/04/25 06:57:44;;;;;;;22.50;13.95;;;9.10;99.90;;;;;;5012352;28;20385;-73
2022/04/25 07:00:11;;;;;;;19.85;14.10;;;9.20;99.90;;;;;;5011460;28;20022;-72
2022/04/25 07:02:37;;;;;;;21.58;14.23;;;9.30;99.90;;;;;;5012312;28;20113;-73
2022/04/25 07:05:05;;;;;;;20.15;14.35;;;9.40;99.90;;;;;;5011329;28;20118;-72
2022/04/25 07:07:31;;;;;;;19.52;13.13;;;9.40;99.90;;;;;;5012491;28;20490;-73
2022/04/25 07:09:57;;;;;;;15.48;10.10;;;9.40;99.90;;;;;;5011962;28;20042;-72
2022/04/25 07:12:23;;;;;;;14.15;11.63;;;9.40;99.90;;;;;;5011646;28;20529;-74
2022/04/25 07:14:49;;;;;;;19.92;12.50;;;9.30;99.90;;;;;;5011993;28;20482;-73
2022/04/25 07:17:15;;;;;;;17.38;12.85;;;9.30;99.90;;;;;;5012473;28;20022;-73
2022/04/25 07:19:40;;;;;;;15.63;11.98;;;9.30;99.90;;;;;;5011705;28;20496;-72
2022/04/25 07:30:23;;;;;;;21.27;14.75;;;9.30;99.90;;;;;;5012311;28;20033;-72
2022/04/25 07:32:48;;;;;;;19.90;14.70;;;9.40;99.90;;;;;;5011982;28;20034;-72
2022/04/25 07:35:14;;;;;;;19.55;14.77;;;9.40;99.90;;;;;;5011509;28;20028;-72
2022/04/25 07:37:40;;;;;;;21.50;14.18;;;9.40;99.90;;;;;;5012136;28;20034;-72
2022/04/25 07:40:08;;;;;;;24.65;15.27;;;9.50;99.90;;;;;;5011696;28;20060;-72
2022/04/25 07:42:38;;;;;;;20.85;14.63;;;9.50;99.90;;;;;;5011867;28;20108;-73
2022/04/25 07:45:05;;;;;;;20.95;14.60;;;9.50;99.90;;;;;;5011956;28;20113;-72
2022/04/25 07:47:31;;;;;;;22.98;15.85;;;9.50;99.90;;;;;;5011475;28;20034;-72
2022/04/25 07:49:57;;;;;;;22.00;15.52;;;9.40;99.90;;;;;;5011800;28;20030;-72
2022/04/25 07:52:22;;;;;;;20.88;14.00;;;9.40;99.90;;;;;;5011887;28;20045;-72
2022/04/25 07:54:48;;;;;;;22.58;15.45;;;9.40;99.90;;;;;;5012809;28;20045;-71
2022/04/25 07:57:14;;;;;;;20.60;14.23;;;9.40;99.90;;;;;;5015421;28;20422;-72
2022/04/25 07:59:39;;;;;;;20.90;15.10;;;9.50;99.90;;;;;;5015476;28;20029;-72
2022/04/25 08:02:05;;;;;;;24.40;15.45;;;9.40;99.90;;;;;;5014345;28;20034;-72
2022/04/25 08:04:30;;;;;;;24.33;15.07;;;9.40;99.90;;;;;;5015441;28;20030;-72
2022/04/25 08:06:56;;;;;;;23.60;14.68;;;9.50;99.90;;;;;;5014860;28;20061;-72
2022/04/25 08:09:22;;;;;;;28.45;15.90;;;9.50;99.90;;;;;;5014579;28;20030;-72
2022/04/25 08:11:47;;;;;;;24.55;16.38;;;9.50;99.90;;;;;;5014767;28;20038;-71
2022/04/25 08:19:41;;;;;;;24.45;16.38;;;9.40;99.90;;;;;;5014981;28;20037;-72
2022/04/25 08:22:09;;;;;;;21.90;16.38;;;9.30;99.90;;;;;;5014818;28;20407;-72
2022/04/25 08:24:36;;;;;;;20.17;15.50;;;9.30;99.90;;;;;;5014518;28;20109;-73
2022/04/25 08:27:03;;;;;;;24.58;16.60;;;9.40;99.90;;;;;;5014609;28;20076;-72
2022/04/25 08:29:29;;;;;;;26.08;15.18;;;9.40;99.90;;;;;;5014223;28;20158;-71
2022/04/25 08:31:54;;;;;;;22.42;15.90;;;9.40;99.90;;;;;;5014392;28;20126;-73
2022/04/25 08:34:20;;;;;;;20.17;15.23;;;9.40;99.90;;;;;;5014857;28;20026;-73
2022/04/25 08:36:45;;;;;;;23.00;15.05;;;9.40;99.90;;;;;;5014110;28;20034;-71
2022/04/25 08:39:11;;;;;;;25.23;14.50;;;9.60;99.90;;;;;;5014637;28;20072;-74
2022/04/25 08:41:44;;;;;;;23.88;14.68;;;9.60;99.90;;;;;;5014793;28;20048;-72
2022/04/25 08:44:11;;;;;;;23.15;15.40;;;9.80;99.90;;;;;;5013807;28;20058;-72
2022/04/25 08:46:40;;;;;;;19.63;14.57;;;9.80;99.90;;;;;;5014479;28;20494;-72
2022/04/25 08:49:06;;;;;;;16.83;12.98;;;9.90;99.90;;;;;;5014159;28;20029;-72
2022/04/25 08:51:37;;;;;;;24.25;15.02;;;9.90;99.90;;;;;;5013757;28;20030;-72
2022/04/25 08:54:04;;;;;;;18.75;14.05;;;10.00;99.90;;;;;;5014309;28;20026;-72
2022/04/25 08:56:30;;;;;;;18.20;13.95;;;10.10;99.90;;;;;;5014256;28;20108;-72
2022/04/25 08:58:56;;;;;;;17.73;13.50;;;10.10;99.90;;;;;;5013638;28;20026;-71
2022/04/25 09:01:22;;;;;;;19.33;13.13;;;10.20;99.90;;;;;;5014349;28;20033;-72
2022/04/25 09:03:47;;;;;;;17.60;13.70;;;10.30;99.90;;;;;;5016420;28;20042;-74
2022/04/25 09:06:13;;;;;;;17.95;13.68;;;10.30;99.90;;;;;;5013584;28;20026;-71
2022/04/25 09:08:39;;;;;;;17.88;13.85;;;10.40;99.90;;;;;;5014274;28;20443;-74
2022/04/25 09:13:48;;;;;;;16.98;12.77;;;10.50;99.90;;;;;;5013040;28;20440;-72
2022/04/25 09:16:17;;;;;;;16.48;12.73;;;10.50;99.90;;;;;;5013987;28;20021;-73
2022/04/25 09:18:43;;;;;;;16.88;12.77;;;10.60;99.90;;;;;;5013500;28;20113;-72
2022/04/25 09:21:14;;;;;;;17.13;13.32;;;10.60;99.90;;;;;;5013807;28;20025;-72
2022/04/25 09:23:40;;;;;;;13.27;11.98;;;10.60;99.90;;;;;;5014049;28;20180;-72
2022/04/25 09:26:14;;;;;;;17.75;12.60;;;10.60;99.90;;;;;;5012950;28;20026;-72
2022/04/25 09:28:50;;;;;;;19.70;14.18;;;10.60;99.90;;;;;;5013813;28;20042;-72
2022/04/25 09:31:17;;;;;;;16.00;12.77;;;10.50;99.90;;;;;;5013936;28;20042;-72
2022/04/25 09:33:43;;;;;;;17.08;13.65;;;10.40;99.90;;;;;;5013155;28;20026;-71
2022/04/25 09:36:08;;;;;;;17.05;13.48;;;10.30;99.90;;;;;;5013676;28;20036;-72
2022/04/25 09:38:36;;;;;;;17.95;12.75;;;10.30;99.90;;;;;;5013667;28;20024;-72
2022/04/25 09:41:03;;;;;;;18.40;12.38;;;10.20;99.90;;;;;;5012679;28;20041;-73
2022/04/25 09:43:30;;;;;;;14.75;12.60;;;10.20;99.90;;;;;;5013510;28;20409;-72
2022/04/25 09:46:00;;;;;;;17.23;12.63;;;10.20;99.90;;;;;;5013375;28;20029;-72
2022/04/25 09:48:26;;;;;;;16.40;11.95;;;10.20;99.90;;;;;;5012952;28;20026;-72
2022/04/25 09:51:17;;;;;;;16.25;11.55;;;10.10;99.90;;;;;;5013014;28;20116;-72
2022/04/25 09:53:53;;;;;;;14.15;12.15;;;10.10;99.90;;;;;;5013288;28;20390;-72
2022/04/25 09:56:27;;;;;;;13.73;12.00;;;10.00;99.90;;;;;;5013216;28;20073;-72
2022/04/25 09:59:07;;;;;;;13.15;11.75;;;10.00;99.90;;;;;;5013006;28;20018;-72
2022/04/25 10:01:36;;;;;;;16.05;12.00;;;10.00;99.90;;;;;;5012410;28;20501;-72
2022/04/25 10:04:03;;;;;;;16.30;12.52;;;10.00;99.90;;;;;;5012844;28;20049;-71
2022/04/25 10:06:35;;;;;;;18.92;11.93;;;10.10;99.90;;;;;;5012027;28;20050;-72
2022/04/25 10:09:03;;;;;;;17.20;11.95;;;10.10;99.90;;;;;;5012368;28;20378;-71
2022/04/25 10:11:33;;;;;;;15.75;12.30;;;10.00;99.90;;;;;;5013031;28;20041;-73
2022/04/25 10:13:59;;;;;;;19.00;13.40;;;10.00;99.90;;;;;;5012810;28;20128;-72
2022/04/25 10:16:25;;;;;;;15.88;12.55;;;10.00;99.90;;;;;;5011640;28;20498;-72
2022/04/25 10:18:51;;;;;;;16.23;12.55;;;10.10;99.90;;;;;;5012588;28;20022;-72
2022/04/25 10:21:17;;;;;;;18.30;12.13;;;10.20;99.90;;;;;;5012822;28;20545;-72
2022/04/25 10:23:44;;;;;;;18.58;14.05;;;10.20;99.90;;;;;;5012204;28;20113;-71
2022/04/25 10:26:09;;;;;;;15.00;12.52;;;10.30;99.90;;;;;;5012526;28;20386;-72
2022/04/25 10:28:50;;;;;;;16.73;13.02;;;10.30;99.90;;;;;;5012875;28;20032;-72
2022/04/25 10:31:26;;;;;;;15.32;12.98;;;10.40;99.90;;;;;;5011939;28;20034;-72
2022/04/25 10:33:55;;;;;;;18.02;13.55;;;10.40;99.90;;;;;;5012393;28;20026;-72
2022/04/25 10:36:38;;;;;;;15.95;13.40;;;10.30;99.90;;;;;;5012237;28;20033;-71
2022/04/25 10:39:11;;;;;;;17.75;12.60;;;10.30;99.90;;;;;;5012392;28;20030;-71
2022/04/25 10:44:20;;;;;;;15.68;12.95;;;10.10;99.90;;;;;;5011812;28;20033;-72
2022/04/25 10:47:16;;;;;;;20.20;13.65;;;10.10;99.90;;;;;;5012692;28;20389;-71
2022/04/25 10:50:09;;;;;;;18.85;13.18;;;10.10;99.90;;;;;;5012344;28;20038;-71
2022/04/25 10:55:19;;;;;;;22.77;12.70;;;10.10;99.90;;;;;;5012211;28;20065;-71
2022/04/25 10:58:03;;;;;;;17.88;13.68;;;10.00;99.90;;;;;;5011789;28;20109;-71
2022/04/25 11:00:41;;;;;;;16.23;12.45;;;10.00;99.90;;;;;;5012395;28;20034;-72
2022/04/25 11:03:24;;;;;;;18.52;13.27;;;9.90;99.90;;;;;;5012298;28;20245;-72
2022/04/25 11:05:52;;;;;;;18.05;12.85;;;10.00;99.90;;;;;;5011455;28;20042;-72
2022/04/25 11:08:18;;;;;;;19.80;13.73;;;10.00;99.90;;;;;;5012406;28;20022;-72
2022/04/25 11:10:47;;;;;;;19.33;13.45;;;10.20;99.90;;;;;;5012155;28;20038;-71
2022/04/25 11:13:15;;;;;;;20.85;12.25;;;10.20;99.90;;;;;;5011585;28;20076;-72
2022/04/25 11:15:46;;;;;;;17.27;12.50;;;10.30;99.90;;;;;;5012317;28;20101;-72
2022/04/25 11:18:34;;;;;;;13.95;11.23;;;10.40;99.90;;;;;;5011321;28;20448;-72
2022/04/25 11:21:09;;;;;;;22.27;12.70;;;10.40;99.90;;;;;;5011967;28;20033;-72
2022/04/25 11:23:57;;;;;;;16.38;13.02;;;10.50;99.90;;;;;;5012079;28;20121;-72
2022/04/25 11:26:22;;;;;;;15.32;13.38;;;10.70;99.90;;;;;;5011554;28;20101;-72
2022/04/25 11:31:24;;;;;;;18.15;12.13;;;10.90;99.90;;;;;;5015932;28;20088;-72
2022/04/25 11:34:01;;;;;;;22.05;12.60;;;11.00;99.90;;;;;;5014753;28;20025;-73
2022/04/25 11:36:29;;;;;;;19.45;13.65;;;11.10;99.90;;;;;;5015846;28;20575;-72
2022/04/25 11:41:41;;;;;;;19.85;13.15;;;11.30;99.90;;;;;;5015527;28;20034;-72
2022/04/25 11:44:07;;;;;;;17.08;13.32;;;11.20;99.90;;;;;;5015344;28;20049;-72
2022/04/25 11:46:37;;;;;;;18.88;13.18;;;11.20;99.90;;;;;;5014673;28;20022;-73
2022/04/25 11:49:05;;;;;;;18.07;13.23;;;11.30;99.90;;;;;;5015577;28;20037;-72
2022/04/25 11:51:35;;;;;;;17.67;13.32;;;11.30;99.90;;;;;;5015716;28;20381;-73
2022/04/25 11:54:04;;;;;;;22.13;13.25;;;11.40;99.90;;;;;;5015107;28;20051;-72
2022/04/25 11:56:32;;;;;;;16.38;13.30;;;11.50;99.90;;;;;;5015445;28;20123;-72
2022/04/25 11:58:58;;;;;;;20.88;13.68;;;11.60;99.90;;;;;;5015182;28;20100;-72
2022/04/25 12:01:48;;;;;;;17.08;11.85;;;11.60;99.90;;;;;;5015757;28;20033;-72
2022/04/25 12:04:23;;;;;;;17.40;12.93;;;11.60;99.90;;;;;;5015506;28;20494;-73
2022/04/25 12:06:50;;;;;;;20.23;12.98;;;11.60;99.90;;;;;;5014246;28;20053;-73
2022/04/25 12:17:47;;;;;;;22.42;13.50;;;11.70;99.90;;;;;;5015415;28;20040;-72
2022/04/25 12:20:17;;;;;;;20.90;14.35;;;11.60;99.90;;;;;;5014967;28;20030;-71
2022/04/25 12:22:59;;;;;;;18.48;12.98;;;11.60;99.90;;;;;;5014478;28;20030;-72
2022/04/25 12:25:29;;;;;;;17.73;13.35;;;11.60;99.90;;;;;;5015043;28;20053;-72
2022/04/25 12:28:25;;;;;;;19.90;12.90;;;11.70;99.90;;;;;;5014550;28;20018;-72
2022/04/25 12:31:07;;;;;;;20.42;13.50;;;11.70;99.90;;;;;;5014976;28;20041;-72
2022/04/25 12:33:42;;;;;;;17.90;12.43;;;11.50;99.90;;;;;;5014826;28;20029;-73
2022/04/25 12:36:24;;;;;;;17.25;13.60;;;11.40;99.90;;;;;;5013943;28;20149;-73
2022/04/25 12:38:50;;;;;;;16.15;12.77;;;11.40;99.90;;;;;;5014760;28;20038;-72
2022/04/25 12:41:25;;;;;;;19.10;13.32;;;11.30;99.90;;;;;;5014474;28;20029;-72
2022/04/25 12:43:53;;;;;;;17.77;13.32;;;11.30;99.90;;;;;;5013726;28;20026;-72
2022/04/25 12:46:36;;;;;;;18.85;12.00;;;11.40;99.90;;;;;;5014628;28;20026;-71
2022/04/25 12:49:06;;;;;;;17.05;11.95;;;11.40;99.90;;;;;;5014562;28;20109;-72
2022/04/25 12:51:32;;;;;;;17.23;12.25;;;11.30;99.90;;;;;;5013713;28;20042;-72
2022/04/25 12:53:58;;;;;;;17.80;11.90;;;11.40;99.90;;;;;;5014294;28;20026;-72
2022/04/25 12:56:29;;;;;;;18.80;12.48;;;11.40;99.90;;;;;;5014129;28;20064;-72
2022/04/25 12:58:54;;;;;;;14.10;12.27;;;11.50;99.90;;;;;;5013437;28;20386;-72
2022/04/25 13:01:36;;;;;;;15.00;12.63;;;11.50;99.90;;;;;;5014292;28;20032;-73
2022/04/25 13:04:03;;;;;;;17.48;12.05;;;11.60;99.90;;;;;;5013145;28;20390;-73
2022/04/25 13:06:31;;;;;;;17.25;12.93;;;11.50;99.90;;;;;;5014379;28;20029;-73
2022/04/25 13:08:57;;;;;;;19.20;13.75;;;11.50;99.90;;;;;;5013907;28;20034;-72
2022/04/25 13:11:23;;;;;;;21.33;14.27;;;11.40;99.90;;;;;;5013417;28;20030;-72
2022/04/25 13:13:50;;;;;;;22.88;14.38;;;11.40;99.90;;;;;;5013650;28;20030;-72
2022/04/25 13:16:16;;;;;;;27.52;14.73;;;11.30;99.90;;;;;;5014247;28;20030;-72
2022/04/25 13:18:42;;;;;;;25.92;14.27;;;11.30;99.90;;;;;;5013393;28;20117;-72
2022/04/25 13:21:08;;;;;;;20.23;14.93;;;11.30;99.90;;;;;;5013745;28;20402;-72
2022/04/25 13:23:33;;;;;;;20.35;13.73;;;11.30;99.90;;;;;;5013950;28;20478;-72
2022/04/25 13:25:59;;;;;;;26.55;14.80;;;11.40;99.90;;;;;;5012831;28;20513;-72
2022/04/25 13:28:24;;;;;;;22.83;14.07;;;11.40;99.90;;;;;;5013713;28;20096;-72